sensor_id;sensor_type;location;lat;lon;timestamp;P1;durP1;ratioP1;P2;durP2;ratioP2
60979;SDS011;46851;49.160;8.980;2023-02-15T00:02:24;178.50;;;31.35;;
60979;SDS011;46851;49.160;8.980;2023-02-15T00:04:50;278.45;;;35.92;;
60979;SDS011;46851;49.160;8.980;2023-02-15T00:07:18;132.30;;;28.20;;
60979;SDS011;46851;49.160;8.980;2023-02-15T00:09:45;178.77;;;31.92;;
60979;SDS011;46851;49.160;8.980;2023-02-15T00:12:11;175.70;;;30.30;;
60979;SDS011;46851;49.160;8.980;2023-02-15T00:14:40;254.38;;;33.53;;
60979;SDS011;46851;49.160;8.980;2023-02-15T00:17:07;317.92;;;34.92;;
60979;SDS011;46851;49.160;8.980;2023-02-15T00:19:33;246.50;;;32.22;;
60979;SDS011;46851;49.160;8.980;2023-02-15T00:21:59;282.52;;;31.77;;
60979;SDS011;46851;49.160;8.980;2023-02-15T00:24:25;118.57;;;28.63;;
60979;SDS011;46851;49.160;8.980;2023-02-15T00:26:51;230.65;;;31.77;;
60979;SDS011;46851;49.160;8.980;2023-02-15T00:29:18;220.50;;;32.70;;
60979;SDS011;46851;49.160;8.980;2023-02-15T00:31:44;204.98;;;32.22;;
60979;SDS011;46851;49.160;8.980;2023-02-15T00:34:17;279.77;;;32.20;;
60979;SDS011;46851;49.160;8.980;2023-02-15T00:36:43;128.45;;;29.10;;
60979;SDS011;46851;49.160;8.980;2023-02-15T00:39:10;164.07;;;28.90;;
60979;SDS011;46851;49.160;8.980;2023-02-15T00:41:36;98.72;;;27.30;;
60979;SDS011;46851;49.160;8.980;2023-02-15T00:44:02;87.90;;;27.77;;
60979;SDS011;46851;49.160;8.980;2023-02-15T00:46:28;178.38;;;29.05;;
60979;SDS011;46851;49.160;8.980;2023-02-15T00:48:54;179.68;;;28.77;;
60979;SDS011;46851;49.160;8.980;2023-02-15T00:51:20;427.70;;;37.60;;
60979;SDS011;46851;49.160;8.980;2023-02-15T00:53:46;111.95;;;25.60;;
60979;SDS011;46851;49.160;8.980;2023-02-15T00:56:12;276.80;;;31.08;;
60979;SDS011;46851;49.160;8.980;2023-02-15T00:58:38;210.25;;;33.63;;
60979;SDS011;46851;49.160;8.980;2023-02-15T01:01:05;304.73;;;34.60;;
60979;SDS011;46851;49.160;8.980;2023-02-15T01:03:32;191.35;;;28.58;;
60979;SDS011;46851;49.160;8.980;2023-02-15T01:05:58;235.85;;;28.55;;
60979;SDS011;46851;49.160;8.980;2023-02-15T01:08:24;91.20;;;24.10;;
60979;SDS011;46851;49.160;8.980;2023-02-15T01:10:50;123.65;;;25.70;;
60979;SDS011;46851;49.160;8.980;2023-02-15T01:13:16;130.55;;;25.95;;
60979;SDS011;46851;49.160;8.980;2023-02-15T01:15:43;365.38;;;31.20;;
60979;SDS011;46851;49.160;8.980;2023-02-15T01:18:10;272.75;;;33.67;;
60979;SDS011;46851;49.160;8.980;2023-02-15T01:20:36;263.55;;;30.80;;
60979;SDS011;46851;49.160;8.980;2023-02-15T01:23:04;262.33;;;31.27;;
60979;SDS011;46851;49.160;8.980;2023-02-15T01:25:30;233.10;;;30.67;;
60979;SDS011;46851;49.160;8.980;2023-02-15T01:27:56;213.35;;;29.05;;
60979;SDS011;46851;49.160;8.980;2023-02-15T01:30:22;184.23;;;30.20;;
60979;SDS011;46851;49.160;8.980;2023-02-15T01:32:48;100.75;;;23.88;;
60979;SDS011;46851;49.160;8.980;2023-02-15T01:35:14;182.32;;;27.73;;
60979;SDS011;46851;49.160;8.980;2023-02-15T01:37:40;87.18;;;23.95;;
60979;SDS011;46851;49.160;8.980;2023-02-15T01:40:07;316.88;;;34.33;;
60979;SDS011;46851;49.160;8.980;2023-02-15T01:42:33;88.85;;;25.42;;
60979;SDS011;46851;49.160;8.980;2023-02-15T01:45:03;267.50;;;32.88;;
60979;SDS011;46851;49.160;8.980;2023-02-15T01:49:58;290.60;;;32.83;;
60979;SDS011;46851;49.160;8.980;2023-02-15T01:52:25;268.92;;;34.70;;
60979;SDS011;46851;49.160;8.980;2023-02-15T01:54:51;391.00;;;36.67;;
60979;SDS011;46851;49.160;8.980;2023-02-15T01:57:18;294.85;;;32.17;;
60979;SDS011;46851;49.160;8.980;2023-02-15T01:59:47;364.65;;;36.55;;
60979;SDS011;46851;49.160;8.980;2023-02-15T02:02:14;136.93;;;27.17;;
60979;SDS011;46851;49.160;8.980;2023-02-15T02:04:47;214.38;;;32.78;;
60979;SDS011;46851;49.160;8.980;2023-02-15T02:07:14;273.50;;;34.35;;
60979;SDS011;46851;49.160;8.980;2023-02-15T02:09:40;99.75;;;27.25;;
60979;SDS011;46851;49.160;8.980;2023-02-15T02:12:06;188.15;;;30.80;;
60979;SDS011;46851;49.160;8.980;2023-02-15T02:14:33;81.80;;;27.70;;
60979;SDS011;46851;49.160;8.980;2023-02-15T02:17:07;236.05;;;32.30;;
60979;SDS011;46851;49.160;8.980;2023-02-15T02:22:37;151.18;;;27.77;;
60979;SDS011;46851;49.160;8.980;2023-02-15T02:25:12;178.90;;;27.85;;
60979;SDS011;46851;49.160;8.980;2023-02-15T02:30:34;198.20;;;27.88;;
60979;SDS011;46851;49.160;8.980;2023-02-15T02:33:07;216.32;;;31.27;;
60979;SDS011;46851;49.160;8.980;2023-02-15T02:35:42;130.80;;;25.88;;
60979;SDS011;46851;49.160;8.980;2023-02-15T02:38:18;93.60;;;26.85;;
60979;SDS011;46851;49.160;8.980;2023-02-15T02:43:29;134.23;;;26.05;;
60979;SDS011;46851;49.160;8.980;2023-02-15T02:46:00;176.23;;;27.90;;
60979;SDS011;46851;49.160;8.980;2023-02-15T02:48:28;103.65;;;26.75;;
60979;SDS011;46851;49.160;8.980;2023-02-15T02:50:56;163.65;;;27.42;;
60979;SDS011;46851;49.160;8.980;2023-02-15T02:53:22;73.15;;;24.85;;
60979;SDS011;46851;49.160;8.980;2023-02-15T02:55:55;281.48;;;32.65;;
60979;SDS011;46851;49.160;8.980;2023-02-15T03:00:57;123.72;;;25.30;;
60979;SDS011;46851;49.160;8.980;2023-02-15T03:03:34;248.65;;;32.50;;
60979;SDS011;46851;49.160;8.980;2023-02-15T03:06:02;141.75;;;27.10;;
60979;SDS011;46851;49.160;8.980;2023-02-15T03:08:32;223.80;;;30.23;;
60979;SDS011;46851;49.160;8.980;2023-02-15T03:11:00;142.25;;;28.10;;
60979;SDS011;46851;49.160;8.980;2023-02-15T03:13:27;282.40;;;33.03;;
60979;SDS011;46851;49.160;8.980;2023-02-15T03:15:54;191.05;;;28.73;;
60979;SDS011;46851;49.160;8.980;2023-02-15T03:18:41;379.75;;;33.25;;
60979;SDS011;46851;49.160;8.980;2023-02-15T03:21:08;190.70;;;30.58;;
60979;SDS011;46851;49.160;8.980;2023-02-15T03:23:47;287.90;;;31.50;;
60979;SDS011;46851;49.160;8.980;2023-02-15T03:26:13;266.98;;;33.00;;
60979;SDS011;46851;49.160;8.980;2023-02-15T03:28:42;68.32;;;23.92;;
60979;SDS011;46851;49.160;8.980;2023-02-15T03:31:09;182.73;;;27.10;;
60979;SDS011;46851;49.160;8.980;2023-02-15T03:33:38;230.63;;;29.80;;
60979;SDS011;46851;49.160;8.980;2023-02-15T03:36:20;107.75;;;24.38;;
60979;SDS011;46851;49.160;8.980;2023-02-15T03:38:49;128.10;;;27.48;;
60979;SDS011;46851;49.160;8.980;2023-02-15T03:41:17;108.53;;;24.70;;
60979;SDS011;46851;49.160;8.980;2023-02-15T03:43:49;205.88;;;31.88;;
60979;SDS011;46851;49.160;8.980;2023-02-15T03:48:49;122.28;;;25.50;;
60979;SDS011;46851;49.160;8.980;2023-02-15T03:51:17;114.78;;;25.85;;
60979;SDS011;46851;49.160;8.980;2023-02-15T03:57:00;218.40;;;27.95;;
60979;SDS011;46851;49.160;8.980;2023-02-15T03:59:53;228.43;;;31.65;;
60979;SDS011;46851;49.160;8.980;2023-02-15T04:02:40;285.00;;;33.95;;
60979;SDS011;46851;49.160;8.980;2023-02-15T04:05:08;315.55;;;35.55;;
60979;SDS011;46851;49.160;8.980;2023-02-15T04:07:34;381.10;;;36.13;;
60979;SDS011;46851;49.160;8.980;2023-02-15T04:10:02;132.55;;;29.10;;
60979;SDS011;46851;49.160;8.980;2023-02-15T04:12:47;317.20;;;40.80;;
60979;SDS011;46851;49.160;8.980;2023-02-15T04:15:13;324.13;;;37.78;;
60979;SDS011;46851;49.160;8.980;2023-02-15T04:17:58;314.05;;;34.55;;
60979;SDS011;46851;49.160;8.980;2023-02-15T04:20:24;108.13;;;29.45;;
60979;SDS011;46851;49.160;8.980;2023-02-15T04:23:08;203.98;;;32.88;;
60979;SDS011;46851;49.160;8.980;2023-02-15T04:25:53;137.73;;;29.25;;
60979;SDS011;46851;49.160;8.980;2023-02-15T04:28:19;253.80;;;33.95;;
60979;SDS011;46851;49.160;8.980;2023-02-15T04:30:46;103.63;;;29.70;;
60979;SDS011;46851;49.160;8.980;2023-02-15T04:33:12;152.90;;;30.50;;
60979;SDS011;46851;49.160;8.980;2023-02-15T04:35:38;90.30;;;28.23;;
60979;SDS011;46851;49.160;8.980;2023-02-15T04:38:04;221.27;;;35.10;;
60979;SDS011;46851;49.160;8.980;2023-02-15T04:40:30;236.60;;;34.67;;
60979;SDS011;46851;49.160;8.980;2023-02-15T04:42:56;150.20;;;30.33;;
60979;SDS011;46851;49.160;8.980;2023-02-15T04:45:22;200.25;;;32.03;;
60979;SDS011;46851;49.160;8.980;2023-02-15T04:47:48;217.85;;;33.42;;
60979;SDS011;46851;49.160;8.980;2023-02-15T04:50:14;178.10;;;32.17;;
60979;SDS011;46851;49.160;8.980;2023-02-15T04:52:41;92.15;;;28.63;;
60979;SDS011;46851;49.160;8.980;2023-02-15T04:55:06;121.82;;;28.60;;
60979;SDS011;46851;49.160;8.980;2023-02-15T04:57:33;297.00;;;35.20;;
60979;SDS011;46851;49.160;8.980;2023-02-15T04:59:59;119.10;;;27.88;;
60979;SDS011;46851;49.160;8.980;2023-02-15T05:02:25;317.55;;;35.13;;
60979;SDS011;46851;49.160;8.980;2023-02-15T05:04:51;227.77;;;33.13;;
60979;SDS011;46851;49.160;8.980;2023-02-15T05:07:17;220.50;;;31.23;;
60979;SDS011;46851;49.160;8.980;2023-02-15T05:09:45;144.45;;;27.50;;
60979;SDS011;46851;49.160;8.980;2023-02-15T05:12:11;85.43;;;25.40;;
60979;SDS011;46851;49.160;8.980;2023-02-15T05:14:37;193.30;;;29.45;;
60979;SDS011;46851;49.160;8.980;2023-02-15T05:17:03;111.22;;;27.05;;
60979;SDS011;46851;49.160;8.980;2023-02-15T05:19:30;132.88;;;27.30;;
60979;SDS011;46851;49.160;8.980;2023-02-15T05:21:56;271.00;;;31.85;;
60979;SDS011;46851;49.160;8.980;2023-02-15T05:24:22;255.43;;;30.67;;
60979;SDS011;46851;49.160;8.980;2023-02-15T05:27:07;154.55;;;30.15;;
60979;SDS011;46851;49.160;8.980;2023-02-15T05:29:54;164.23;;;26.95;;
60979;SDS011;46851;49.160;8.980;2023-02-15T05:32:20;212.18;;;31.33;;
60979;SDS011;46851;49.160;8.980;2023-02-15T05:34:46;179.57;;;33.90;;
60979;SDS011;46851;49.160;8.980;2023-02-15T05:37:12;176.52;;;29.63;;
60979;SDS011;46851;49.160;8.980;2023-02-15T05:39:38;120.68;;;26.25;;
60979;SDS011;46851;49.160;8.980;2023-02-15T05:42:04;128.38;;;27.65;;
60979;SDS011;46851;49.160;8.980;2023-02-15T05:44:30;142.75;;;29.25;;
60979;SDS011;46851;49.160;8.980;2023-02-15T05:46:56;184.40;;;30.85;;
60979;SDS011;46851;49.160;8.980;2023-02-15T05:49:22;118.78;;;30.55;;
60979;SDS011;46851;49.160;8.980;2023-02-15T05:51:48;96.10;;;27.33;;
60979;SDS011;46851;49.160;8.980;2023-02-15T05:54:14;79.88;;;28.27;;
60979;SDS011;46851;49.160;8.980;2023-02-15T05:56:40;86.28;;;27.77;;
60979;SDS011;46851;49.160;8.980;2023-02-15T05:59:06;92.07;;;28.63;;
60979;SDS011;46851;49.160;8.980;2023-02-15T06:01:32;93.13;;;26.23;;
60979;SDS011;46851;49.160;8.980;2023-02-15T06:03:58;72.65;;;27.67;;
60979;SDS011;46851;49.160;8.980;2023-02-15T06:06:24;125.70;;;28.27;;
60979;SDS011;46851;49.160;8.980;2023-02-15T06:08:50;77.30;;;26.73;;
60979;SDS011;46851;49.160;8.980;2023-02-15T06:11:16;69.03;;;25.48;;
60979;SDS011;46851;49.160;8.980;2023-02-15T06:13:42;67.00;;;24.92;;
60979;SDS011;46851;49.160;8.980;2023-02-15T06:16:08;184.25;;;28.10;;
60979;SDS011;46851;49.160;8.980;2023-02-15T06:18:34;127.72;;;27.27;;
60979;SDS011;46851;49.160;8.980;2023-02-15T06:21:00;112.43;;;25.63;;
60979;SDS011;46851;49.160;8.980;2023-02-15T06:23:27;228.70;;;31.00;;
60979;SDS011;46851;49.160;8.980;2023-02-15T06:25:53;183.20;;;27.25;;
60979;SDS011;46851;49.160;8.980;2023-02-15T06:28:19;107.63;;;26.33;;
60979;SDS011;46851;49.160;8.980;2023-02-15T06:30:45;76.60;;;25.08;;
60979;SDS011;46851;49.160;8.980;2023-02-15T06:33:11;73.82;;;25.58;;
60979;SDS011;46851;49.160;8.980;2023-02-15T06:35:37;64.97;;;25.73;;
60979;SDS011;46851;49.160;8.980;2023-02-15T06:38:03;66.53;;;25.70;;
60979;SDS011;46851;49.160;8.980;2023-02-15T06:40:29;66.57;;;26.98;;
60979;SDS011;46851;49.160;8.980;2023-02-15T06:42:55;132.07;;;26.45;;
60979;SDS011;46851;49.160;8.980;2023-02-15T06:45:21;92.88;;;25.73;;
60979;SDS011;46851;49.160;8.980;2023-02-15T06:47:47;67.25;;;24.77;;
60979;SDS011;46851;49.160;8.980;2023-02-15T06:50:13;69.10;;;25.67;;
60979;SDS011;46851;49.160;8.980;2023-02-15T06:52:39;86.10;;;25.15;;
60979;SDS011;46851;49.160;8.980;2023-02-15T06:55:05;135.27;;;25.23;;
60979;SDS011;46851;49.160;8.980;2023-02-15T06:57:31;143.68;;;26.98;;
60979;SDS011;46851;49.160;8.980;2023-02-15T06:59:58;94.63;;;23.52;;
60979;SDS011;46851;49.160;8.980;2023-02-15T07:02:24;80.20;;;23.33;;
60979;SDS011;46851;49.160;8.980;2023-02-15T07:04:50;71.10;;;23.50;;
60979;SDS011;46851;49.160;8.980;2023-02-15T07:07:16;91.90;;;24.15;;
60979;SDS011;46851;49.160;8.980;2023-02-15T07:09:42;129.43;;;26.20;;
60979;SDS011;46851;49.160;8.980;2023-02-15T07:12:09;100.53;;;23.20;;
60979;SDS011;46851;49.160;8.980;2023-02-15T07:14:53;116.55;;;27.15;;
60979;SDS011;46851;49.160;8.980;2023-02-15T07:17:19;120.35;;;26.88;;
60979;SDS011;46851;49.160;8.980;2023-02-15T07:19:45;162.00;;;31.05;;
60979;SDS011;46851;49.160;8.980;2023-02-15T07:22:11;74.03;;;26.40;;
60979;SDS011;46851;49.160;8.980;2023-02-15T07:24:37;264.92;;;34.17;;
60979;SDS011;46851;49.160;8.980;2023-02-15T07:27:03;59.58;;;23.65;;
60979;SDS011;46851;49.160;8.980;2023-02-15T07:29:29;100.85;;;24.02;;
60979;SDS011;46851;49.160;8.980;2023-02-15T07:31:55;80.18;;;26.85;;
60979;SDS011;46851;49.160;8.980;2023-02-15T07:34:21;76.10;;;26.38;;
60979;SDS011;46851;49.160;8.980;2023-02-15T07:36:47;138.35;;;27.00;;
60979;SDS011;46851;49.160;8.980;2023-02-15T07:39:15;74.25;;;26.70;;
60979;SDS011;46851;49.160;8.980;2023-02-15T07:41:42;78.70;;;26.40;;
60979;SDS011;46851;49.160;8.980;2023-02-15T07:44:11;102.43;;;26.30;;
60979;SDS011;46851;49.160;8.980;2023-02-15T07:46:37;137.95;;;26.63;;
60979;SDS011;46851;49.160;8.980;2023-02-15T07:49:03;138.40;;;26.08;;
60979;SDS011;46851;49.160;8.980;2023-02-15T07:51:29;96.88;;;25.27;;
60979;SDS011;46851;49.160;8.980;2023-02-15T07:53:55;85.72;;;24.70;;
60979;SDS011;46851;49.160;8.980;2023-02-15T07:56:21;75.15;;;23.50;;
60979;SDS011;46851;49.160;8.980;2023-02-15T07:58:47;74.45;;;24.45;;
60979;SDS011;46851;49.160;8.980;2023-02-15T08:01:20;80.63;;;25.38;;
60979;SDS011;46851;49.160;8.980;2023-02-15T08:06:12;132.85;;;23.98;;
60979;SDS011;46851;49.160;8.980;2023-02-15T08:08:39;91.10;;;24.42;;
60979;SDS011;46851;49.160;8.980;2023-02-15T08:13:50;68.10;;;22.67;;
60979;SDS011;46851;49.160;8.980;2023-02-15T08:16:27;103.47;;;23.88;;
60979;SDS011;46851;49.160;8.980;2023-02-15T08:18:54;178.88;;;27.23;;
60979;SDS011;46851;49.160;8.980;2023-02-15T08:21:20;55.85;;;21.98;;
60979;SDS011;46851;49.160;8.980;2023-02-15T08:23:47;113.63;;;24.25;;
60979;SDS011;46851;49.160;8.980;2023-02-15T08:29:20;70.97;;;22.30;;
60979;SDS011;46851;49.160;8.980;2023-02-15T08:31:52;69.05;;;22.80;;
60979;SDS011;46851;49.160;8.980;2023-02-15T08:34:19;108.13;;;24.95;;
60979;SDS011;46851;49.160;8.980;2023-02-15T08:36:45;84.80;;;25.90;;
60979;SDS011;46851;49.160;8.980;2023-02-15T08:39:12;79.25;;;25.63;;
60979;SDS011;46851;49.160;8.980;2023-02-15T08:41:39;76.80;;;24.15;;
60979;SDS011;46851;49.160;8.980;2023-02-15T08:44:06;118.32;;;25.42;;
60979;SDS011;46851;49.160;8.980;2023-02-15T08:46:33;141.48;;;25.95;;
60979;SDS011;46851;49.160;8.980;2023-02-15T08:48:59;106.47;;;26.02;;
60979;SDS011;46851;49.160;8.980;2023-02-15T08:51:27;72.38;;;25.27;;
60979;SDS011;46851;49.160;8.980;2023-02-15T08:53:54;59.15;;;24.92;;
60979;SDS011;46851;49.160;8.980;2023-02-15T08:56:21;55.33;;;23.42;;
60979;SDS011;46851;49.160;8.980;2023-02-15T08:58:48;55.95;;;23.05;;
60979;SDS011;46851;49.160;8.980;2023-02-15T09:01:15;67.60;;;23.98;;
60979;SDS011;46851;49.160;8.980;2023-02-15T09:03:45;68.82;;;22.77;;
60979;SDS011;46851;49.160;8.980;2023-02-15T09:06:12;51.45;;;21.75;;
60979;SDS011;46851;49.160;8.980;2023-02-15T09:08:38;50.88;;;23.15;;
60979;SDS011;46851;49.160;8.980;2023-02-15T09:11:14;52.65;;;21.83;;
60979;SDS011;46851;49.160;8.980;2023-02-15T09:13:54;212.05;;;28.00;;
60979;SDS011;46851;49.160;8.980;2023-02-15T09:16:22;91.88;;;23.33;;
60979;SDS011;46851;49.160;8.980;2023-02-15T09:18:48;99.28;;;23.92;;
60979;SDS011;46851;49.160;8.980;2023-02-15T09:21:16;61.15;;;23.58;;
60979;SDS011;46851;49.160;8.980;2023-02-15T09:23:43;111.47;;;26.20;;
60979;SDS011;46851;49.160;8.980;2023-02-15T09:26:11;56.90;;;24.73;;
60979;SDS011;46851;49.160;8.980;2023-02-15T09:28:37;63.53;;;25.33;;
60979;SDS011;46851;49.160;8.980;2023-02-15T09:31:07;60.38;;;25.30;;
60979;SDS011;46851;49.160;8.980;2023-02-15T09:33:34;56.65;;;23.55;;
60979;SDS011;46851;49.160;8.980;2023-02-15T09:36:01;108.80;;;25.52;;
60979;SDS011;46851;49.160;8.980;2023-02-15T09:38:27;79.15;;;25.40;;
60979;SDS011;46851;49.160;8.980;2023-02-15T09:41:39;56.38;;;22.38;;
60979;SDS011;46851;49.160;8.980;2023-02-15T09:43:49;58.75;;;23.13;;
60979;SDS011;46851;49.160;8.980;2023-02-15T09:46:22;54.65;;;23.00;;
60979;SDS011;46851;49.160;8.980;2023-02-15T09:48:52;74.15;;;22.63;;
60979;SDS011;46851;49.160;8.980;2023-02-15T09:51:30;50.80;;;23.17;;
60979;SDS011;46851;49.160;8.980;2023-02-15T09:54:17;53.47;;;23.02;;
60979;SDS011;46851;49.160;8.980;2023-02-15T09:56:48;47.70;;;23.05;;
60979;SDS011;46851;49.160;8.980;2023-02-15T10:17:20;64.55;;;23.67;;
60979;SDS011;46851;49.160;8.980;2023-02-15T10:25:29;51.97;;;22.17;;
60979;SDS011;46851;49.160;8.980;2023-02-15T10:28:09;48.97;;;21.95;;
60979;SDS011;46851;49.160;8.980;2023-02-15T10:36:16;58.72;;;24.70;;
60979;SDS011;46851;49.160;8.980;2023-02-15T10:41:27;60.20;;;25.08;;
60979;SDS011;46851;49.160;8.980;2023-02-15T10:54:09;54.67;;;24.10;;
60979;SDS011;46851;49.160;8.980;2023-02-15T10:56:53;51.83;;;23.63;;
60979;SDS011;46851;49.160;8.980;2023-02-15T11:12:48;63.45;;;27.38;;
60979;SDS011;46851;49.160;8.980;2023-02-15T11:17:42;48.85;;;22.58;;
60979;SDS011;46851;49.160;8.980;2023-02-15T11:20:20;49.05;;;22.77;;
60979;SDS011;46851;49.160;8.980;2023-02-15T11:22:49;52.37;;;24.00;;
60979;SDS011;46851;49.160;8.980;2023-02-15T11:25:18;52.83;;;24.50;;
60979;SDS011;46851;49.160;8.980;2023-02-15T11:27:45;50.15;;;24.48;;
60979;SDS011;46851;49.160;8.980;2023-02-15T11:32:44;49.25;;;24.25;;
60979;SDS011;46851;49.160;8.980;2023-02-15T11:37:43;49.55;;;22.80;;
60979;SDS011;46851;49.160;8.980;2023-02-15T11:40:15;47.35;;;22.40;;
60979;SDS011;46851;49.160;8.980;2023-02-15T11:42:43;44.40;;;22.75;;
60979;SDS011;46851;49.160;8.980;2023-02-15T11:45:21;43.58;;;21.70;;
60979;SDS011;46851;49.160;8.980;2023-02-15T11:47:48;46.00;;;22.80;;
60979;SDS011;46851;49.160;8.980;2023-02-15T11:50:15;45.45;;;22.15;;
60979;SDS011;46851;49.160;8.980;2023-02-15T11:52:43;45.90;;;22.30;;
60979;SDS011;46851;49.160;8.980;2023-02-15T11:55:12;41.88;;;22.58;;
60979;SDS011;46851;49.160;8.980;2023-02-15T11:57:41;53.25;;;23.27;;
60979;SDS011;46851;49.160;8.980;2023-02-15T12:00:14;44.28;;;20.60;;
60979;SDS011;46851;49.160;8.980;2023-02-15T12:02:42;44.33;;;22.48;;
60979;SDS011;46851;49.160;8.980;2023-02-15T12:05:14;48.55;;;22.77;;
60979;SDS011;46851;49.160;8.980;2023-02-15T12:07:46;41.67;;;21.25;;
60979;SDS011;46851;49.160;8.980;2023-02-15T12:10:17;43.35;;;21.10;;
60979;SDS011;46851;49.160;8.980;2023-02-15T12:12:45;47.20;;;21.33;;
60979;SDS011;46851;49.160;8.980;2023-02-15T12:15:11;42.25;;;21.02;;
60979;SDS011;46851;49.160;8.980;2023-02-15T12:17:50;46.85;;;22.65;;
60979;SDS011;46851;49.160;8.980;2023-02-15T12:22:50;43.88;;;21.88;;
60979;SDS011;46851;49.160;8.980;2023-02-15T12:25:22;53.88;;;23.60;;
60979;SDS011;46851;49.160;8.980;2023-02-15T12:27:48;42.70;;;21.85;;
60979;SDS011;46851;49.160;8.980;2023-02-15T12:32:54;48.00;;;23.38;;
60979;SDS011;46851;49.160;8.980;2023-02-15T12:37:55;45.67;;;21.00;;
60979;SDS011;46851;49.160;8.980;2023-02-15T12:40:28;42.42;;;20.33;;
60979;SDS011;46851;49.160;8.980;2023-02-15T12:42:54;40.00;;;20.73;;
60979;SDS011;46851;49.160;8.980;2023-02-15T12:45:30;39.35;;;20.70;;
60979;SDS011;46851;49.160;8.980;2023-02-15T12:50:52;40.47;;;21.45;;
60979;SDS011;46851;49.160;8.980;2023-02-15T12:53:33;37.55;;;20.50;;
60979;SDS011;46851;49.160;8.980;2023-02-15T12:56:00;40.58;;;20.80;;
60979;SDS011;46851;49.160;8.980;2023-02-15T12:58:27;39.60;;;20.27;;
60979;SDS011;46851;49.160;8.980;2023-02-15T13:01:37;42.67;;;22.50;;
60979;SDS011;46851;49.160;8.980;2023-02-15T13:03:53;43.22;;;22.83;;
60979;SDS011;46851;49.160;8.980;2023-02-15T13:06:20;54.22;;;26.40;;
60979;SDS011;46851;49.160;8.980;2023-02-15T13:08:50;44.15;;;23.73;;
60979;SDS011;46851;49.160;8.980;2023-02-15T13:11:21;40.65;;;22.25;;
60979;SDS011;46851;49.160;8.980;2023-02-15T13:13:55;46.42;;;23.65;;
60979;SDS011;46851;49.160;8.980;2023-02-15T13:16:28;46.35;;;24.30;;
60979;SDS011;46851;49.160;8.980;2023-02-15T13:18:56;45.65;;;23.70;;
60979;SDS011;46851;49.160;8.980;2023-02-15T13:21:31;45.10;;;23.30;;
60979;SDS011;46851;49.160;8.980;2023-02-15T13:24:00;44.80;;;23.20;;
60979;SDS011;46851;49.160;8.980;2023-02-15T13:26:28;47.45;;;23.70;;
60979;SDS011;46851;49.160;8.980;2023-02-15T13:28:56;43.97;;;23.10;;
60979;SDS011;46851;49.160;8.980;2023-02-15T13:31:24;47.88;;;25.27;;
60979;SDS011;46851;49.160;8.980;2023-02-15T13:34:01;48.20;;;25.40;;
60979;SDS011;46851;49.160;8.980;2023-02-15T13:36:38;51.67;;;25.30;;
60979;SDS011;46851;49.160;8.980;2023-02-15T13:39:22;51.63;;;23.40;;
60979;SDS011;46851;49.160;8.980;2023-02-15T13:52:23;49.88;;;23.15;;
60979;SDS011;46851;49.160;8.980;2023-02-15T14:00:22;41.38;;;23.55;;
60979;SDS011;46851;49.160;8.980;2023-02-15T14:03:15;43.67;;;22.52;;
60979;SDS011;46851;49.160;8.980;2023-02-15T14:11:04;44.17;;;23.40;;
60979;SDS011;46851;49.160;8.980;2023-02-15T14:16:13;42.40;;;23.98;;
60979;SDS011;46851;49.160;8.980;2023-02-15T14:18:53;47.25;;;23.02;;
60979;SDS011;46851;49.160;8.980;2023-02-15T14:21:26;43.90;;;23.92;;
60979;SDS011;46851;49.160;8.980;2023-02-15T14:26:45;40.30;;;21.48;;
60979;SDS011;46851;49.160;8.980;2023-02-15T14:32:10;45.13;;;23.10;;
60979;SDS011;46851;49.160;8.980;2023-02-15T14:34:50;49.42;;;24.15;;
60979;SDS011;46851;49.160;8.980;2023-02-15T14:37:19;43.97;;;23.70;;
60979;SDS011;46851;49.160;8.980;2023-02-15T14:39:52;42.10;;;23.50;;
60979;SDS011;46851;49.160;8.980;2023-02-15T14:42:45;43.10;;;23.42;;
60979;SDS011;46851;49.160;8.980;2023-02-15T14:47:42;39.88;;;22.77;;
60979;SDS011;46851;49.160;8.980;2023-02-15T14:55:40;62.60;;;26.95;;
60979;SDS011;46851;49.160;8.980;2023-02-15T14:58:09;44.70;;;24.23;;
60979;SDS011;46851;49.160;8.980;2023-02-15T15:00:37;39.35;;;22.48;;
60979;SDS011;46851;49.160;8.980;2023-02-15T15:03:10;41.28;;;23.33;;
60979;SDS011;46851;49.160;8.980;2023-02-15T15:05:37;37.03;;;22.23;;
60979;SDS011;46851;49.160;8.980;2023-02-15T15:08:21;50.03;;;23.52;;
60979;SDS011;46851;49.160;8.980;2023-02-15T15:10:48;41.63;;;21.73;;
60979;SDS011;46851;49.160;8.980;2023-02-15T15:15:56;50.20;;;23.65;;
60979;SDS011;46851;49.160;8.980;2023-02-15T15:21:07;39.55;;;22.42;;
60979;SDS011;46851;49.160;8.980;2023-02-15T15:47:03;46.28;;;22.77;;
60979;SDS011;46851;49.160;8.980;2023-02-15T15:49:34;37.30;;;22.40;;
60979;SDS011;46851;49.160;8.980;2023-02-15T15:52:03;40.30;;;22.95;;
60979;SDS011;46851;49.160;8.980;2023-02-15T15:54:34;40.92;;;22.10;;
60979;SDS011;46851;49.160;8.980;2023-02-15T15:57:04;35.70;;;22.55;;
60979;SDS011;46851;49.160;8.980;2023-02-15T15:59:31;41.50;;;23.10;;
60979;SDS011;46851;49.160;8.980;2023-02-15T16:02:07;41.10;;;22.83;;
60979;SDS011;46851;49.160;8.980;2023-02-15T16:04:37;37.53;;;22.95;;
60979;SDS011;46851;49.160;8.980;2023-02-15T16:10:01;46.95;;;24.10;;
60979;SDS011;46851;49.160;8.980;2023-02-15T16:12:28;46.90;;;24.70;;
60979;SDS011;46851;49.160;8.980;2023-02-15T16:14:54;43.92;;;24.50;;
60979;SDS011;46851;49.160;8.980;2023-02-15T16:17:25;44.45;;;24.25;;
60979;SDS011;46851;49.160;8.980;2023-02-15T16:19:52;44.72;;;24.85;;
60979;SDS011;46851;49.160;8.980;2023-02-15T16:22:19;43.97;;;24.50;;
60979;SDS011;46851;49.160;8.980;2023-02-15T16:27:35;44.70;;;23.23;;
60979;SDS011;46851;49.160;8.980;2023-02-15T16:30:16;49.85;;;27.13;;
60979;SDS011;46851;49.160;8.980;2023-02-15T16:32:43;44.83;;;24.42;;
60979;SDS011;46851;49.160;8.980;2023-02-15T16:35:12;54.53;;;24.88;;
60979;SDS011;46851;49.160;8.980;2023-02-15T16:40:05;47.58;;;23.85;;
60979;SDS011;46851;49.160;8.980;2023-02-15T16:42:31;41.85;;;23.45;;
60979;SDS011;46851;49.160;8.980;2023-02-15T16:45:00;44.42;;;24.15;;
60979;SDS011;46851;49.160;8.980;2023-02-15T16:47:28;42.97;;;24.83;;
60979;SDS011;46851;49.160;8.980;2023-02-15T16:49:57;47.00;;;25.17;;
60979;SDS011;46851;49.160;8.980;2023-02-15T16:52:24;45.75;;;25.17;;
60979;SDS011;46851;49.160;8.980;2023-02-15T16:54:58;50.80;;;25.67;;
60979;SDS011;46851;49.160;8.980;2023-02-15T16:57:25;49.92;;;25.85;;
60979;SDS011;46851;49.160;8.980;2023-02-15T16:59:53;51.08;;;25.70;;
60979;SDS011;46851;49.160;8.980;2023-02-15T17:02:23;48.03;;;25.70;;
60979;SDS011;46851;49.160;8.980;2023-02-15T17:07:37;50.35;;;25.98;;
60979;SDS011;46851;49.160;8.980;2023-02-15T17:10:15;55.45;;;26.65;;
60979;SDS011;46851;49.160;8.980;2023-02-15T17:12:53;54.03;;;26.50;;
60979;SDS011;46851;49.160;8.980;2023-02-15T17:15:30;57.83;;;26.85;;
60979;SDS011;46851;49.160;8.980;2023-02-15T17:17:57;52.38;;;26.23;;
60979;SDS011;46851;49.160;8.980;2023-02-15T17:20:24;48.65;;;25.48;;
60979;SDS011;46851;49.160;8.980;2023-02-15T17:22:50;49.45;;;25.15;;
60979;SDS011;46851;49.160;8.980;2023-02-15T17:25:21;48.70;;;25.30;;
60979;SDS011;46851;49.160;8.980;2023-02-15T17:27:53;47.22;;;25.13;;